createdAt,value
2022-09-15T00:01:38.019Z,964.04
2022-09-15T00:06:37.897Z,964.11
2022-09-15T00:11:37.837Z,964.15
2022-09-15T00:16:37.800Z,964.13
2022-09-15T00:21:37.716Z,964.24
2022-09-15T00:26:37.650Z,964.26
2022-09-15T00:31:37.562Z,964.28
2022-09-15T00:36:37.531Z,964.24
2022-09-15T00:41:37.482Z,964.23
2022-09-15T00:46:37.425Z,964.24
2022-09-15T00:51:37.332Z,964.26
2022-09-15T00:56:37.283Z,964.22
2022-09-15T01:01:37.253Z,964.17
2022-09-15T01:06:37.154Z,964.11
2022-09-15T01:11:37.086Z,964.14
2022-09-15T01:16:37.096Z,964.17
2022-09-15T01:21:36.967Z,964.14
2022-09-15T01:26:36.918Z,964.06
2022-09-15T01:31:36.920Z,963.98
2022-09-15T01:36:36.779Z,963.98
2022-09-15T01:41:36.720Z,963.97
2022-09-15T01:46:36.663Z,963.99
2022-09-15T01:51:36.595Z,963.98
2022-09-15T01:56:36.553Z,963.85
2022-09-15T02:01:36.525Z,963.77
2022-09-15T02:06:36.415Z,963.74
2022-09-15T02:11:36.348Z,963.70
2022-09-15T02:16:36.386Z,963.73
2022-09-15T02:21:36.245Z,963.60
2022-09-15T02:26:36.186Z,963.62
2022-09-15T02:31:36.147Z,963.63
2022-09-15T02:36:36.047Z,963.56
2022-09-15T02:41:35.988Z,963.55
2022-09-15T02:46:35.930Z,963.54
2022-09-15T02:51:35.870Z,963.54
2022-09-15T02:56:35.820Z,963.61
2022-09-15T03:01:35.756Z,963.52
2022-09-15T03:06:35.682Z,963.51
2022-09-15T03:11:35.605Z,963.61
2022-09-15T03:16:35.666Z,963.57
2022-09-15T03:21:35.477Z,963.57
2022-09-15T03:26:35.440Z,963.51
2022-09-15T03:31:35.450Z,963.59
2022-09-15T03:36:35.347Z,963.54
2022-09-15T03:41:35.240Z,963.53
2022-09-15T03:46:35.190Z,963.48
2022-09-15T03:51:35.119Z,963.51
2022-09-15T03:56:35.096Z,963.57
2022-09-15T04:01:35.046Z,963.57
2022-09-15T04:06:34.968Z,963.69
2022-09-15T04:11:34.891Z,963.56
2022-09-15T04:16:34.899Z,963.49
2022-09-15T04:21:34.744Z,963.47
2022-09-15T04:26:34.710Z,963.40
2022-09-15T04:31:34.693Z,963.32
2022-09-15T04:36:34.576Z,963.21
2022-09-15T04:41:34.532Z,963.24
2022-09-15T04:46:34.544Z,963.21
2022-09-15T04:51:34.389Z,963.14
2022-09-15T04:56:34.328Z,963.14
2022-09-15T05:01:34.405Z,963.13
2022-09-15T05:06:34.205Z,963.18
2022-09-15T05:11:34.131Z,963.19
2022-09-15T05:16:34.099Z,963.21
2022-09-15T05:21:34.023Z,963.22
2022-09-15T05:26:33.963Z,963.24
2022-09-15T05:31:34.043Z,963.29
2022-09-15T05:36:33.834Z,963.23
2022-09-15T05:41:33.771Z,963.23
2022-09-15T05:46:33.780Z,963.23
2022-09-15T05:51:33.652Z,963.30
2022-09-15T05:56:33.596Z,963.28
2022-09-15T06:01:33.901Z,963.23
2022-09-15T06:06:33.479Z,963.17
2022-09-15T06:11:33.399Z,963.12
2022-09-15T06:16:33.389Z,963.09
2022-09-15T06:21:33.309Z,963.17
2022-09-15T06:26:33.247Z,963.14
2022-09-15T06:31:33.199Z,963.08
2022-09-15T06:36:33.115Z,963.08
2022-09-15T06:41:58.316Z,963.16
2022-09-15T06:46:33.999Z,963.16
2022-09-15T06:51:32.965Z,963.18
2022-09-15T06:56:37.662Z,963.27
2022-09-15T07:01:33.767Z,963.13
2022-09-15T07:06:32.738Z,963.18
2022-09-15T07:11:32.669Z,963.28
2022-09-15T07:16:32.679Z,963.34
2022-09-15T07:21:32.522Z,963.40
2022-09-15T07:26:32.481Z,963.37
2022-09-15T07:31:32.477Z,963.44
2022-09-15T07:36:32.341Z,963.53
2022-09-15T07:41:32.256Z,963.53
2022-09-15T07:46:32.211Z,963.55
2022-09-15T07:51:32.136Z,963.50
2022-09-15T07:56:32.076Z,963.57
2022-09-15T08:01:32.090Z,963.51
2022-09-15T08:06:31.960Z,963.55
2022-09-15T08:11:31.898Z,963.46
2022-09-15T08:16:31.899Z,963.48
2022-09-15T08:21:31.762Z,963.49
2022-09-15T08:26:31.711Z,963.47
2022-09-15T08:31:31.674Z,963.43
2022-09-15T08:36:31.572Z,963.50
2022-09-15T08:41:31.521Z,963.55
2022-09-15T08:46:31.507Z,963.59
2022-09-15T08:51:31.375Z,963.52
2022-09-15T08:56:31.327Z,963.54
2022-09-15T09:01:31.315Z,963.64
2022-09-15T09:06:31.205Z,963.69
2022-09-15T09:11:31.129Z,963.92
2022-09-15T09:16:31.084Z,963.98
2022-09-15T09:21:31.009Z,964.05
2022-09-15T09:26:30.953Z,964.21
2022-09-15T09:31:30.910Z,964.18
2022-09-15T09:36:30.822Z,964.20
2022-09-15T09:41:30.752Z,964.38
2022-09-15T09:46:30.752Z,964.40
2022-09-15T09:51:30.626Z,964.50
2022-09-15T09:56:30.599Z,964.51
2022-09-15T10:01:30.609Z,964.48
2022-09-15T10:06:30.457Z,964.40
2022-09-15T10:11:30.388Z,964.36
2022-09-15T10:16:30.380Z,964.34
2022-09-15T10:21:30.260Z,964.35
2022-09-15T10:26:30.211Z,964.34
2022-09-15T10:31:30.208Z,964.39
2022-09-15T10:36:30.092Z,964.43
2022-09-15T10:41:30.052Z,964.40
2022-09-15T10:46:29.953Z,964.46
2022-09-15T10:51:29.904Z,964.54
2022-09-15T10:56:29.844Z,964.56
2022-09-15T11:01:29.766Z,964.61
2022-09-15T11:06:29.705Z,964.57
2022-09-15T11:11:29.644Z,964.62
2022-09-15T11:16:29.665Z,964.64
2022-09-15T11:21:29.523Z,964.60
2022-09-15T11:26:29.457Z,964.58
2022-09-15T11:31:29.439Z,964.63
2022-09-15T11:36:29.329Z,964.58
2022-09-15T11:41:29.273Z,964.56
2022-09-15T11:46:29.283Z,964.53
2022-09-15T11:51:29.161Z,964.39
2022-09-15T11:56:29.092Z,964.42
2022-09-15T12:01:29.115Z,964.48
2022-09-15T12:06:28.953Z,964.39
2022-09-15T12:11:28.930Z,964.39
2022-09-15T12:16:28.845Z,964.37
2022-09-15T12:21:28.789Z,964.42
2022-09-15T12:26:28.707Z,964.29
2022-09-15T12:31:28.747Z,964.42
2022-09-15T12:36:28.583Z,964.47
2022-09-15T12:41:28.540Z,964.52
2022-09-15T12:46:28.533Z,964.51
2022-09-15T12:51:28.403Z,964.53
2022-09-15T12:56:28.349Z,964.51
2022-09-15T13:01:28.340Z,964.55
2022-09-15T13:06:28.230Z,964.55
2022-09-15T13:11:28.154Z,964.55
2022-09-15T13:16:28.125Z,964.57
2022-09-15T13:21:28.025Z,964.54
2022-09-15T13:26:27.979Z,964.53
2022-09-15T13:31:27.977Z,964.46
2022-09-15T13:38:01.970Z,964.45
2022-09-15T13:41:28.778Z,964.36
2022-09-15T13:46:27.784Z,964.33
2022-09-15T13:51:27.700Z,964.19
2022-09-15T13:56:27.611Z,964.21
2022-09-15T14:01:28.222Z,964.24
2022-09-15T14:06:27.480Z,964.27
2022-09-15T14:11:27.412Z,964.26
2022-09-15T14:16:27.391Z,964.25
2022-09-15T14:21:27.296Z,964.30
2022-09-15T14:26:27.240Z,964.41
2022-09-15T14:31:27.218Z,964.38
2022-09-15T14:36:27.086Z,964.41
2022-09-15T14:41:27.037Z,964.42
2022-09-15T14:46:27.011Z,964.46
2022-09-15T14:51:27.890Z,964.58
2022-09-15T14:56:26.858Z,964.61
2022-09-15T15:01:26.877Z,964.68
2022-09-15T15:06:30.080Z,964.74
2022-09-15T15:11:26.673Z,964.79
2022-09-15T15:16:26.673Z,964.97
2022-09-15T15:21:26.581Z,964.99
2022-09-15T15:26:26.492Z,965.08
2022-09-15T15:31:26.535Z,965.14
2022-09-15T15:36:26.346Z,965.29
2022-09-15T15:41:26.325Z,965.35
2022-09-15T15:46:26.226Z,965.38
2022-09-15T15:51:26.166Z,965.44
2022-09-15T15:56:26.096Z,965.51
2022-09-15T16:01:26.067Z,965.56
2022-09-15T16:06:25.968Z,965.58
2022-09-15T16:11:25.910Z,965.50
2022-09-15T16:16:25.921Z,965.58
2022-09-15T16:21:25.780Z,965.65
2022-09-15T16:26:25.733Z,965.75
2022-09-15T16:31:25.709Z,965.70
2022-09-15T16:36:25.594Z,965.75
2022-09-15T16:41:25.537Z,965.77
2022-09-15T16:46:25.505Z,965.81
2022-09-15T16:51:30.672Z,965.75
2022-09-15T16:56:26.331Z,965.80
2022-09-15T17:01:25.284Z,965.87
2022-09-15T17:06:25.218Z,965.91
2022-09-15T17:11:25.149Z,966.00
2022-09-15T17:16:25.117Z,966.08
2022-09-15T17:21:25.018Z,966.08
2022-09-15T17:26:30.473Z,966.10
2022-09-15T17:31:26.138Z,966.10
2022-09-15T17:36:24.823Z,966.10
2022-09-15T17:41:24.772Z,966.19
2022-09-15T17:46:24.725Z,966.15
2022-09-15T17:51:24.661Z,966.28
2022-09-15T17:56:24.592Z,966.40
2022-09-15T18:01:24.576Z,966.45
2022-09-15T18:06:24.462Z,966.51
2022-09-15T18:11:24.405Z,966.54
2022-09-15T18:16:24.391Z,966.64
2022-09-15T18:21:24.278Z,966.66
2022-09-15T18:26:26.514Z,966.79
2022-09-15T18:31:24.188Z,966.88
2022-09-15T18:36:24.087Z,966.89
2022-09-15T18:41:24.041Z,967.02
2022-09-15T18:46:24.034Z,967.04
2022-09-15T18:51:29.287Z,967.05
2022-09-15T18:56:24.841Z,967.08
2022-09-15T19:01:23.919Z,967.16
2022-09-15T19:06:23.731Z,967.25
2022-09-15T19:11:23.682Z,967.34
2022-09-15T19:16:34.515Z,967.31
2022-09-15T19:21:27.399Z,967.33
2022-09-15T19:26:23.487Z,967.41
2022-09-15T19:31:23.494Z,967.46
2022-09-15T19:36:28.515Z,967.45
2022-09-15T19:41:24.275Z,967.42
2022-09-15T19:46:23.256Z,967.55
2022-09-15T19:51:23.157Z,967.64
2022-09-15T19:56:23.087Z,967.55
2022-09-15T20:01:23.075Z,967.51
2022-09-15T20:06:22.965Z,967.56
2022-09-15T20:11:22.899Z,967.63
2022-09-15T20:16:22.845Z,967.67
2022-09-15T20:21:39.086Z,967.79
2022-09-15T20:26:23.719Z,967.81
2022-09-15T20:31:22.658Z,967.85
2022-09-15T20:36:22.582Z,967.96
2022-09-15T20:41:22.522Z,967.98
2022-09-15T20:46:22.593Z,968.14
2022-09-15T20:51:22.404Z,968.12
2022-09-15T20:56:22.332Z,968.20
2022-09-15T21:01:22.318Z,968.27
2022-09-15T21:06:22.199Z,968.32
2022-09-15T21:11:22.143Z,968.34
2022-09-15T21:16:22.473Z,968.41
2022-09-15T21:21:22.034Z,968.35
2022-09-15T21:26:21.965Z,968.40
2022-09-15T21:31:21.903Z,968.46
2022-09-15T21:36:21.830Z,968.46
2022-09-15T21:41:21.757Z,968.40
2022-09-15T21:46:21.699Z,968.34
2022-09-15T21:51:24.677Z,968.19
2022-09-15T21:56:21.572Z,968.23
2022-09-15T22:01:21.595Z,968.31
2022-09-15T22:06:21.461Z,968.35
2022-09-15T22:11:21.383Z,968.44
2022-09-15T22:16:21.430Z,968.54
2022-09-15T22:21:21.271Z,968.50
2022-09-15T22:26:21.203Z,968.57
2022-09-15T22:31:21.200Z,968.54
2022-09-15T22:36:23.046Z,968.50
2022-09-15T22:41:22.022Z,968.52
2022-09-15T22:46:21.042Z,968.52
2022-09-15T22:51:20.899Z,968.59
2022-09-15T22:56:20.839Z,968.61
2022-09-15T23:01:20.858Z,968.58
2022-09-15T23:06:20.709Z,968.57
2022-09-15T23:11:20.974Z,968.58
2022-09-15T23:16:20.637Z,968.58
2022-09-15T23:21:20.538Z,968.55
2022-09-15T23:26:20.458Z,968.67
2022-09-15T23:31:20.469Z,968.68
2022-09-15T23:36:20.333Z,968.50
2022-09-15T23:41:20.282Z,968.31
2022-09-15T23:46:20.266Z,968.33
2022-09-15T23:51:20.151Z,968.36
2022-09-15T23:56:20.080Z,968.38
